Etusivu
METAR-TAF:

METAR-TAF

Lentoasemat :

Red Wing Regional Airport

Red Wing, Minnesota, Yhdysvallat

Leveyspiiri: 44-35-25N, Pituuspiiri: 092-29-10W, korkeus merenpinnasta: 239 m

Tämänhetkinen sää

Tämä raportti tehtiin 19 minuuttia sitten, kello 10.55 UTC
Tuuli 6 kn kaakosta
Lämpötila 22°C
Kosteus 78%
Ilmanpaine 1016 hPa
Näkyvyys: 16.1 km
selkeää

METAR: KRGK 141055Z AUTO 14006KT 10SM CLR 22/18 A2999 RMK AO2 LTG DSNT NW

Aika: 06:14 (11:14 UTC)


TAF: puuttuu

Säähavainnot ja -ennusteet yli 4000 lentoasemalta (METAR- ja TAF-raportit).

Käytössä olevat sääasemat on merkitty karttaan keltaisilla ja punaisilla pisteillä.

Aseta hiiri pisteen päälle nähdäksesi sääaseman nimen.

Klikkaa sitten nähdäksesi säähavainnot ja -ennusteet.

Kartan vaihtaminen: klikkaa mustalla rastilla varustettuja vihreitä pisteitä, niin voit zoomata sisään; viivalla varustettua vihreää pistettä, niin voit zoomata ulos tai vihreitä nuolia, niin pääset viereisille kartoille.


METAR-TAF: